Terminal Aerodrome Forecast
Issued by NWS Missoula, MT

Home | Current Version | Previous Version | Text Only | Print | Product List | Glossary On
Versions: 1 2 3 4 5 6 7 8 9 10 11 12 13 14 15 16 17
000
FTUS45 KMSO 182320
TAFMSO
TAF
KMSO 182320Z 1900/1924 30012KT 6SM FU BKN120
     FM190300 VRB05KT 6SM HZ SCT120
     FM191700 VRB05KT P6SM SCT150=

USA.gov is the U.S. government's official web portal to all federal, state and local government web resources and services.